Latest Weather Observations for Smithville

IDN60801

Issued at 1:12 am EST Friday 19 April 2019 (issued every 10 minutes, with the page automatically refreshed every 10 minutes)

About weather observations | Map of weather stations | Latest weather observations for NSW | Other Formats
Station Details ID: 046142 Name: SMITHVILLE AWS Lat: -30.07 Lon: 141.01 Height: 94.0 m
Data from the previous 72 hours. | See also: Recent months at Smithville
Date/Time
EST
Temp
°C
App
Temp
°C
Dew
Point
°C
Rel
Hum
%
Delta-T
°C
Wind Press
QNH
hPa
Press
MSL
hPa
Rain since
9am
mm
Dir  Spd
km/h
Gust
km/h
Spd
kts
Gust
kts
19/01:00am 20.3 - 5.5 38 7.3 - - - - - - - 0.0
19/12:30am 20.4 - 5.6 38 7.4 - - - - - - - 0.0
19/12:00am 21.0 - 5.4 36 7.8 - - - - - - - 0.0
 
Date/Time
EST
Temp
°C
App
Temp
°C
Dew
Point
°C
Rel
Hum
%
Delta-T
°C
Wind Press
QNH
hPa
Press
MSL
hPa
Rain since
9am
mm
Dir  Spd
km/h
Gust
km/h
Spd
kts
Gust
kts
18/11:30pm 21.8 - 4.8 33 8.4 - - - - - - - 0.0
18/11:00pm 23.0 - 5.0 31 9.0 - - - - - - - 0.0
18/10:30pm 23.7 - 4.6 29 9.5 - - - - - - - 0.0
18/10:00pm 24.1 - 4.5 28 9.8 - - - - - - - 0.0
18/09:30pm 24.8 - 5.1 28 10.0 - - - - - - - 0.0
18/09:00pm 25.0 - 4.7 27 10.2 - - - - - - - 0.0
18/08:30pm 25.2 - 4.3 26 10.5 - - - - - - - 0.0
18/08:00pm 25.7 - 4.2 25 10.8 - - - - - - - 0.0
18/07:30pm 26.3 - 4.1 24 11.2 - - - - - - - 0.0
18/07:00pm 27.4 - 4.5 23 11.7 - - - - - - - 0.0
18/06:30pm 28.9 - 4.4 21 12.6 - - - - - - - 0.0
18/06:00pm 30.3 - 4.1 19 13.5 - - - - - - - 0.0
18/05:30pm 30.9 - 3.8 18 13.9 - - - - - - - 0.0
18/05:00pm 31.4 - 3.4 17 14.4 - - - - - - - 0.0
18/04:30pm 31.5 - 3.5 17 14.4 - - - - - - - 0.0
18/04:00pm 31.5 - 2.7 16 14.6 - - - - - - - 0.0
18/03:30pm 32.6 - 2.6 15 15.3 - - - - - - - 0.0
18/03:00pm 31.6 - 2.7 16 14.7 - - - - - - - 0.0
18/02:30pm 31.5 - 2.7 16 14.6 - - - - - - - 0.0
18/02:00pm 31.5 - 2.7 16 14.6 - - - - - - - 0.0
18/01:30pm 30.9 - 3.0 17 14.2 - - - - - - - 0.0
18/01:00pm 30.9 - 3.0 17 14.2 - - - - - - - 0.0
18/12:30pm 29.9 - 2.2 17 13.8 - - - - - - - 0.0
18/12:00pm 29.4 - 2.6 18 13.4 - - - - - - - 0.0
18/11:30am 28.8 - 2.9 19 13.0 - - - - - - - 0.0
18/11:00am 27.8 - 2.8 20 12.4 - - - - - - - 0.0
18/10:30am 27.5 - 2.6 20 12.3 - - - - - - - 0.0
18/10:00am 26.7 - 2.6 21 11.8 - - - - - - - 0.0
18/09:30am 26.6 - 3.2 22 11.6 - - - - - - - 0.0
18/09:00am 24.2 - 2.4 24 10.5 - - - - - - - 0.0
18/08:30am 21.3 - 2.1 28 9.0 - - - - - - - 0.0
18/08:00am 18.6 - 2.4 34 7.5 - - - - - - - 0.0
18/07:30am 16.1 - 2.2 39 6.2 - - - - - - - 0.0
18/07:00am 14.5 - 1.8 42 5.6 - - - - - - - 0.0
18/06:30am 15.1 - 1.6 40 5.9 - - - - - - - 0.0
18/06:00am 16.5 - 2.9 40 6.2 - - - - - - - 0.0
18/05:30am 16.2 - 1.9 38 6.4 - - - - - - - 0.0
18/05:00am 16.2 - 2.2 39 6.3 - - - - - - - 0.0
18/04:30am 16.1 - 1.0 36 6.6 - - - - - - - 0.0
18/04:00am 16.7 - 1.6 36 6.7 - - - - - - - 0.0
18/03:30am 16.7 - 2.3 38 6.5 - - - - - - - 0.0
18/03:00am 16.4 - 1.7 37 6.5 - - - - - - - 0.0
18/02:30am 17.0 - 1.4 35 6.9 - - - - - - - 0.0
18/02:00am 16.8 - 1.7 36 6.7 - - - - - - - 0.0
18/01:30am 17.6 - 1.6 34 7.2 - - - - - - - 0.0
18/01:00am 18.6 - 2.4 34 7.5 - - - - - - - 0.0
18/12:30am 19.4 - 2.3 32 7.9 - - - - - - - 0.0
18/12:00am 19.4 - 2.3 32 7.9 - - - - - - - 0.0
 
Date/Time
EST
Temp
°C
App
Temp
°C
Dew
Point
°C
Rel
Hum
%
Delta-T
°C
Wind Press
QNH
hPa
Press
MSL
hPa
Rain since
9am
mm
Dir  Spd
km/h
Gust
km/h
Spd
kts
Gust
kts
17/11:30pm 19.5 - 2.4 32 7.9 - - - - - - - 0.0
17/11:00pm 20.1 - 2.5 31 8.2 - - - - - - - 0.0
17/10:30pm 21.2 - 3.0 30 8.6 - - - - - - - 0.0
17/10:00pm 22.0 - 2.2 27 9.3 - - - - - - - 0.0
17/09:30pm 22.6 - 2.1 26 9.7 - - - - - - - 0.0
17/09:00pm 21.9 - 1.6 26 9.4 - - - - - - - 0.0
17/08:30pm 22.4 - 1.4 25 9.8 - - - - - - - 0.0
17/08:00pm 24.1 - 1.7 23 10.6 - - - - - - - 0.0
17/07:30pm 25.6 - 2.3 22 11.3 - - - - - - - 0.0
17/07:00pm 28.1 - 3.7 21 12.3 - - - - - - - 0.0
17/06:30pm 28.9 - 3.0 19 13.0 - - - - - - - 0.0
17/06:00pm 31.1 - 3.2 17 14.2 - - - - - - - 0.0
17/05:30pm 31.6 - 2.7 16 14.7 - - - - - - - 0.0
17/05:00pm 32.1 - 3.1 16 14.9 - - - - - - - 0.0
17/04:30pm 32.3 - 2.4 15 15.2 - - - - - - - 0.0
17/04:00pm 32.6 - 2.6 15 15.3 - - - - - - - 0.0
17/03:30pm 32.4 - 2.5 15 15.2 - - - - - - - 0.0
17/03:00pm 32.5 - 2.5 15 15.3 - - - - - - - 0.0
17/02:30pm 32.3 - 3.3 16 14.9 - - - - - - - 0.0
17/02:00pm 33.0 - 2.9 15 15.5 - - - - - - - 0.0
17/01:30pm 32.4 - 2.5 15 15.2 - - - - - - - 0.0
17/01:00pm 31.9 - 3.0 16 14.8 - - - - - - - 0.0
17/12:30pm 31.6 - 2.7 16 14.7 - - - - - - - 0.0
17/12:00pm 31.6 - 2.7 16 14.7 - - - - - - - 0.0
17/11:30am 30.6 - 3.6 18 13.8 - - - - - - - 0.0
17/11:00am 30.0 - 3.1 18 13.6 - - - - - - - 0.0
17/10:30am 29.0 - 3.8 20 12.8 - - - - - - - 0.0
17/10:00am 28.0 - 3.7 21 12.3 - - - - - - - 0.0
17/09:30am 26.8 - 4.0 23 11.5 - - - - - - - 0.0
17/09:00am 25.8 - 4.3 25 10.8 - - - - - - - 0.0
17/08:30am 24.4 - 4.2 27 10.0 - - - - - - - 0.0
17/08:00am 20.9 - 3.6 32 8.3 - - - - - - - 0.0
17/07:30am 18.6 - 2.9 35 7.3 - - - - - - - 0.0
17/07:00am 18.2 - 2.9 36 7.1 - - - - - - - 0.0
17/06:30am 19.2 - 3.0 34 7.6 - - - - - - - 0.0
17/06:00am 20.4 - 3.2 32 8.2 - - - - - - - 0.0
17/05:30am 20.9 - 3.2 31 8.4 - - - - - - - 0.0
17/05:00am 20.1 - 2.9 32 8.1 - - - - - - - 0.0
17/04:30am 19.3 - 2.6 33 7.8 - - - - - - - 0.0
17/04:00am 19.6 - 2.5 32 7.9 - - - - - - - 0.0
17/03:30am 19.9 - 2.7 32 8.0 - - - - - - - 0.0
17/03:00am 20.6 - 2.9 31 8.4 - - - - - - - 0.0
17/02:30am 21.1 - 2.9 30 8.6 - - - - - - - 0.0
17/02:00am 18.7 - 2.5 34 7.5 - - - - - - - 0.0
17/01:30am 19.3 - 2.2 32 7.9 - - - - - - - 0.0
17/01:00am 20.4 - 2.3 30 8.4 - - - - - - - 0.0
17/12:30am 20.1 - 2.0 30 8.4 - - - - - - - 0.0
17/12:00am 21.7 - 2.4 28 9.1 - - - - - - - 0.0
 
Date/Time
EST
Temp
°C
App
Temp
°C
Dew
Point
°C
Rel
Hum
%
Delta-T
°C
Wind Press
QNH
hPa
Press
MSL
hPa
Rain since
9am
mm
Dir  Spd
km/h
Gust
km/h
Spd
kts
Gust
kts
16/11:30pm 23.2 - 2.7 26 9.8 - - - - - - - 0.0
16/11:00pm 23.7 - 3.1 26 10.0 - - - - - - - 0.0
16/10:30pm 24.0 - 2.8 25 10.2 - - - - - - - 0.0
16/10:00pm 23.9 - 2.7 25 10.2 - - - - - - - 0.0
16/09:30pm 24.1 - 2.9 25 10.3 - - - - - - - 0.0
16/09:00pm 24.5 - 2.6 24 10.6 - - - - - - - 0.0
16/08:30pm 25.5 - 2.9 23 11.1 - - - - - - - 0.0
16/08:00pm 26.2 - 2.8 22 11.5 - - - - - - - 0.0
16/07:30pm 27.1 - 2.9 21 12.0 - - - - - - - 0.0
16/07:00pm 27.8 - 2.8 20 12.4 - - - - - - - 0.0
16/06:30pm 29.9 - 3.0 18 13.6 - - - - - - - 0.0
16/06:00pm 31.3 - 2.5 16 14.5 - - - - - - - 0.0
16/05:30pm 32.1 - 2.2 15 15.1 - - - - - - - 0.0
16/05:00pm 32.6 - 2.6 15 15.3 - - - - - - - 0.0
16/04:30pm 32.7 - 2.7 15 15.3 - - - - - - - 0.0
16/04:00pm 33.2 - 3.1 15 15.5 - - - - - - - 0.0
16/03:30pm 33.6 - 2.4 14 15.9 - - - - - - - 0.0
16/03:00pm 33.5 - 2.4 14 15.9 - - - - - - - 0.0
16/02:30pm 33.3 - 3.2 15 15.6 - - - - - - - 0.0
16/02:00pm 33.0 - 2.9 15 15.5 - - - - - - - 0.0
16/01:30pm 33.1 - 3.0 15 15.5 - - - - - - - 0.0
16/01:00pm 32.5 - 3.5 16 15.0 - - - - - - - 0.0
16/12:30pm 31.8 - 2.9 16 14.7 - - - - - - - 0.0
16/12:00pm 31.6 - 3.6 17 14.4 - - - - - - - 0.0
16/11:30am 31.1 - 3.2 17 14.2 - - - - - - - 0.0
16/11:00am 30.5 - 3.5 18 13.8 - - - - - - - 0.0
16/10:30am 29.9 - 3.8 19 13.3 - - - - - - - 0.0
16/10:00am 29.0 - 3.8 20 12.8 - - - - - - - 0.0
16/09:30am 28.3 - 3.9 21 12.4 - - - - - - - 0.0
16/09:00am 26.6 - 4.4 24 11.2 - - - - - - - 0.0
16/08:30am 23.9 - 3.8 27 9.9 - - - - - - - 0.0
16/08:00am 21.3 - 3.0 30 8.7 - - - - - - - 0.0
16/07:30am 20.0 - 2.8 32 8.1 - - - - - - - 0.0
16/07:00am 19.0 - 2.8 34 7.5 - - - - - - - 0.0
16/06:30am 19.0 - 3.2 35 7.4 - - - - - - - 0.0
16/06:00am 19.0 - 2.8 34 7.5 - - - - - - - 0.0
16/05:30am 18.8 - 2.6 34 7.5 - - - - - - - 0.0
16/05:00am 18.2 - 2.1 34 7.3 - - - - - - - 0.0
16/04:30am 19.1 - 2.5 33 7.7 - - - - - - - 0.0
16/04:00am 19.1 - 2.5 33 7.7 - - - - - - - 0.0
16/03:30am 19.2 - 1.7 31 8.0 - - - - - - - 0.0
16/03:00am 21.1 - 2.4 29 8.8 - - - - - - - 0.0
16/02:30am 22.0 - 2.7 28 9.2 - - - - - - - 0.0
16/02:00am 23.1 - 2.6 26 9.8 - - - - - - - 0.0
16/01:30am 24.2 - 2.9 25 10.3 - - - - - - - 0.0

Other formats

Comma delimited format used in spreadsheet applications
http://www.bom.gov.au/fwo/IDN60801/IDN60801.94796.axf

JavaScript Object Notation format (JSON) in row-major order
http://www.bom.gov.au/fwo/IDN60801/IDN60801.94796.json

Data quality

Most of these data are generated automatically and are frequently updated. Quality checks on data are not normally performed. It is possible for incorrect values to appear. Refer to information at About Latest Weather Observations and please check the disclaimer before using these data.